sensor_id;sensor_type;location;lat;lon;timestamp;temperature;humidity
45906;DHT22;31619;49.008;12.106;2023-02-28T00:02:20;-1.90;99.90
45906;DHT22;31619;49.008;12.106;2023-02-28T00:04:45;-1.90;99.90
45906;DHT22;31619;49.008;12.106;2023-02-28T00:07:18;-1.90;99.90
45906;DHT22;31619;49.008;12.106;2023-02-28T00:09:44;-2.00;99.90
45906;DHT22;31619;49.008;12.106;2023-02-28T00:12:09;-1.90;99.90
45906;DHT22;31619;49.008;12.106;2023-02-28T00:14:36;-2.00;99.90
45906;DHT22;31619;49.008;12.106;2023-02-28T00:17:02;-2.00;99.90
45906;DHT22;31619;49.008;12.106;2023-02-28T00:19:27;-2.00;99.90
45906;DHT22;31619;49.008;12.106;2023-02-28T00:21:53;-2.00;99.90
45906;DHT22;31619;49.008;12.106;2023-02-28T00:24:18;-1.90;99.90
45906;DHT22;31619;49.008;12.106;2023-02-28T00:26:44;-2.00;99.90
45906;DHT22;31619;49.008;12.106;2023-02-28T00:29:09;-2.00;99.90
45906;DHT22;31619;49.008;12.106;2023-02-28T00:31:35;-2.10;99.90
45906;DHT22;31619;49.008;12.106;2023-02-28T00:34:01;-2.10;99.90
45906;DHT22;31619;49.008;12.106;2023-02-28T00:36:26;-2.10;99.90
45906;DHT22;31619;49.008;12.106;2023-02-28T00:38:52;-2.20;99.90
45906;DHT22;31619;49.008;12.106;2023-02-28T00:41:17;-2.20;99.90
45906;DHT22;31619;49.008;12.106;2023-02-28T00:43:43;-2.20;99.90
45906;DHT22;31619;49.008;12.106;2023-02-28T00:46:09;-2.20;99.90
45906;DHT22;31619;49.008;12.106;2023-02-28T00:48:35;-2.20;99.90
45906;DHT22;31619;49.008;12.106;2023-02-28T00:51:01;-2.10;99.90
45906;DHT22;31619;49.008;12.106;2023-02-28T00:53:27;-2.10;99.90
45906;DHT22;31619;49.008;12.106;2023-02-28T00:55:53;-2.10;99.90
45906;DHT22;31619;49.008;12.106;2023-02-28T00:58:19;-2.10;99.90
45906;DHT22;31619;49.008;12.106;2023-02-28T01:00:44;-2.20;99.90
45906;DHT22;31619;49.008;12.106;2023-02-28T01:03:15;-2.20;99.90
45906;DHT22;31619;49.008;12.106;2023-02-28T01:05:41;-2.20;99.90
45906;DHT22;31619;49.008;12.106;2023-02-28T01:08:07;-2.20;99.90
45906;DHT22;31619;49.008;12.106;2023-02-28T01:10:32;-2.20;99.90
45906;DHT22;31619;49.008;12.106;2023-02-28T01:12:59;-2.10;99.90
45906;DHT22;31619;49.008;12.106;2023-02-28T01:15:24;-2.20;99.90
45906;DHT22;31619;49.008;12.106;2023-02-28T01:17:50;-2.20;99.90
45906;DHT22;31619;49.008;12.106;2023-02-28T01:20:16;-2.30;99.90
45906;DHT22;31619;49.008;12.106;2023-02-28T01:22:41;-2.30;99.90
45906;DHT22;31619;49.008;12.106;2023-02-28T01:25:07;-2.30;99.90
45906;DHT22;31619;49.008;12.106;2023-02-28T01:27:33;-2.30;99.90
45906;DHT22;31619;49.008;12.106;2023-02-28T01:29:59;-2.30;99.90
45906;DHT22;31619;49.008;12.106;2023-02-28T01:32:24;-2.30;99.90
45906;DHT22;31619;49.008;12.106;2023-02-28T01:34:50;-2.30;99.90
45906;DHT22;31619;49.008;12.106;2023-02-28T01:37:16;-2.30;99.90
45906;DHT22;31619;49.008;12.106;2023-02-28T01:39:41;-2.30;99.90
45906;DHT22;31619;49.008;12.106;2023-02-28T01:42:09;-2.30;99.90
45906;DHT22;31619;49.008;12.106;2023-02-28T01:47:19;-2.30;99.90
45906;DHT22;31619;49.008;12.106;2023-02-28T01:49:45;-2.30;99.90
45906;DHT22;31619;49.008;12.106;2023-02-28T01:52:12;-2.30;99.90
45906;DHT22;31619;49.008;12.106;2023-02-28T01:54:45;-2.40;99.90
45906;DHT22;31619;49.008;12.106;2023-02-28T01:57:15;-2.40;99.90
45906;DHT22;31619;49.008;12.106;2023-02-28T01:59:49;-2.40;99.90
45906;DHT22;31619;49.008;12.106;2023-02-28T02:02:22;-2.40;99.90
45906;DHT22;31619;49.008;12.106;2023-02-28T02:04:58;-2.40;99.90
45906;DHT22;31619;49.008;12.106;2023-02-28T02:07:28;-2.40;99.90
45906;DHT22;31619;49.008;12.106;2023-02-28T02:10:13;-2.40;99.90
45906;DHT22;31619;49.008;12.106;2023-02-28T02:15:40;-2.30;99.90
45906;DHT22;31619;49.008;12.106;2023-02-28T02:23:54;-2.40;99.90
45906;DHT22;31619;49.008;12.106;2023-02-28T02:35:16;-2.40;99.90
45906;DHT22;31619;49.008;12.106;2023-02-28T02:41:19;-2.40;99.90
45906;DHT22;31619;49.008;12.106;2023-02-28T02:44:02;-2.30;99.90
45906;DHT22;31619;49.008;12.106;2023-02-28T02:46:33;-2.40;99.90
45906;DHT22;31619;49.008;12.106;2023-02-28T02:49:02;-2.40;99.90
45906;DHT22;31619;49.008;12.106;2023-02-28T02:51:30;-2.40;99.90
45906;DHT22;31619;49.008;12.106;2023-02-28T02:54:08;-2.40;99.90
45906;DHT22;31619;49.008;12.106;2023-02-28T02:56:39;-2.40;99.90
45906;DHT22;31619;49.008;12.106;2023-02-28T02:59:10;-2.50;99.90
45906;DHT22;31619;49.008;12.106;2023-02-28T03:01:38;-2.50;99.90
45906;DHT22;31619;49.008;12.106;2023-02-28T03:04:08;-2.50;99.90
45906;DHT22;31619;49.008;12.106;2023-02-28T03:06:34;-2.50;99.90
45906;DHT22;31619;49.008;12.106;2023-02-28T03:09:01;-2.50;99.90
45906;DHT22;31619;49.008;12.106;2023-02-28T03:11:27;-2.50;99.90
45906;DHT22;31619;49.008;12.106;2023-02-28T03:20:01;-2.50;99.90
45906;DHT22;31619;49.008;12.106;2023-02-28T03:25:56;-2.60;99.90
45906;DHT22;31619;49.008;12.106;2023-02-28T03:28:36;-2.60;99.90
45906;DHT22;31619;49.008;12.106;2023-02-28T03:31:14;-2.70;99.90
45906;DHT22;31619;49.008;12.106;2023-02-28T03:33:50;-2.60;99.90
45906;DHT22;31619;49.008;12.106;2023-02-28T03:36:24;-2.70;99.90
45906;DHT22;31619;49.008;12.106;2023-02-28T03:39:08;-2.70;99.90
45906;DHT22;31619;49.008;12.106;2023-02-28T03:41:49;-2.80;99.90
45906;DHT22;31619;49.008;12.106;2023-02-28T03:44:21;-2.80;99.90
45906;DHT22;31619;49.008;12.106;2023-02-28T03:47:09;-2.90;99.90
45906;DHT22;31619;49.008;12.106;2023-02-28T03:49:42;-2.90;99.90
45906;DHT22;31619;49.008;12.106;2023-02-28T03:52:11;-2.80;99.90
45906;DHT22;31619;49.008;12.106;2023-02-28T03:54:50;-2.80;99.90
45906;DHT22;31619;49.008;12.106;2023-02-28T03:57:32;-2.90;99.90
45906;DHT22;31619;49.008;12.106;2023-02-28T04:00:25;-2.90;99.90
45906;DHT22;31619;49.008;12.106;2023-02-28T04:02:54;-2.80;99.90
45906;DHT22;31619;49.008;12.106;2023-02-28T04:05:21;-2.80;99.90
45906;DHT22;31619;49.008;12.106;2023-02-28T04:07:47;-2.80;99.90
45906;DHT22;31619;49.008;12.106;2023-02-28T04:10:15;-2.90;99.90
45906;DHT22;31619;49.008;12.106;2023-02-28T04:12:40;-2.90;99.90
45906;DHT22;31619;49.008;12.106;2023-02-28T04:15:07;-3.00;99.90
45906;DHT22;31619;49.008;12.106;2023-02-28T04:17:32;-2.90;99.90
45906;DHT22;31619;49.008;12.106;2023-02-28T04:19:58;-2.90;99.90
45906;DHT22;31619;49.008;12.106;2023-02-28T04:22:24;-2.90;99.90
45906;DHT22;31619;49.008;12.106;2023-02-28T04:24:51;-2.80;99.90
45906;DHT22;31619;49.008;12.106;2023-02-28T04:27:19;-2.80;99.90
45906;DHT22;31619;49.008;12.106;2023-02-28T04:29:45;-2.70;99.90
45906;DHT22;31619;49.008;12.106;2023-02-28T04:32:11;-2.80;99.90
45906;DHT22;31619;49.008;12.106;2023-02-28T04:34:36;-2.70;99.90
45906;DHT22;31619;49.008;12.106;2023-02-28T04:37:02;-2.70;99.90
45906;DHT22;31619;49.008;12.106;2023-02-28T04:39:28;-2.70;99.90
45906;DHT22;31619;49.008;12.106;2023-02-28T04:41:55;-2.70;99.90
45906;DHT22;31619;49.008;12.106;2023-02-28T04:44:21;-2.70;99.90
45906;DHT22;31619;49.008;12.106;2023-02-28T04:46:48;-2.60;99.90
45906;DHT22;31619;49.008;12.106;2023-02-28T04:49:14;-2.60;99.90
45906;DHT22;31619;49.008;12.106;2023-02-28T04:51:40;-2.60;99.90
45906;DHT22;31619;49.008;12.106;2023-02-28T04:54:07;-2.60;99.90
45906;DHT22;31619;49.008;12.106;2023-02-28T04:56:32;-2.60;99.90
45906;DHT22;31619;49.008;12.106;2023-02-28T04:58:58;-2.60;99.90
45906;DHT22;31619;49.008;12.106;2023-02-28T05:01:26;-2.60;99.90
45906;DHT22;31619;49.008;12.106;2023-02-28T05:03:53;-2.60;99.90
45906;DHT22;31619;49.008;12.106;2023-02-28T05:06:22;-2.60;99.90
45906;DHT22;31619;49.008;12.106;2023-02-28T05:08:49;-2.60;99.90
45906;DHT22;31619;49.008;12.106;2023-02-28T05:11:26;-2.50;99.90
45906;DHT22;31619;49.008;12.106;2023-02-28T05:13:52;-2.50;99.90
45906;DHT22;31619;49.008;12.106;2023-02-28T05:16:19;-2.60;99.90
45906;DHT22;31619;49.008;12.106;2023-02-28T05:18:45;-2.60;99.90
45906;DHT22;31619;49.008;12.106;2023-02-28T05:23:52;-2.50;99.90
45906;DHT22;31619;49.008;12.106;2023-02-28T05:26:18;-2.50;99.90
45906;DHT22;31619;49.008;12.106;2023-02-28T05:28:44;-2.50;99.90
45906;DHT22;31619;49.008;12.106;2023-02-28T05:31:13;-2.50;99.90
45906;DHT22;31619;49.008;12.106;2023-02-28T05:33:39;-2.50;99.90
45906;DHT22;31619;49.008;12.106;2023-02-28T05:36:05;-2.50;99.90
45906;DHT22;31619;49.008;12.106;2023-02-28T05:38:31;-2.50;99.90
45906;DHT22;31619;49.008;12.106;2023-02-28T05:40:57;-2.60;99.90
45906;DHT22;31619;49.008;12.106;2023-02-28T05:43:22;-2.60;99.90
45906;DHT22;31619;49.008;12.106;2023-02-28T05:45:48;-2.60;99.90
45906;DHT22;31619;49.008;12.106;2023-02-28T05:48:14;-2.50;99.90
45906;DHT22;31619;49.008;12.106;2023-02-28T05:50:40;-2.50;99.90
45906;DHT22;31619;49.008;12.106;2023-02-28T05:53:06;-2.50;99.90
45906;DHT22;31619;49.008;12.106;2023-02-28T05:55:31;-2.50;99.90
45906;DHT22;31619;49.008;12.106;2023-02-28T05:57:57;-2.60;99.90
45906;DHT22;31619;49.008;12.106;2023-02-28T06:00:22;-2.60;99.90
45906;DHT22;31619;49.008;12.106;2023-02-28T06:02:48;-2.50;99.90
45906;DHT22;31619;49.008;12.106;2023-02-28T06:05:16;-2.60;99.90
45906;DHT22;31619;49.008;12.106;2023-02-28T06:07:43;-2.60;99.90
45906;DHT22;31619;49.008;12.106;2023-02-28T06:10:10;-2.60;99.90
45906;DHT22;31619;49.008;12.106;2023-02-28T06:12:37;-2.50;99.90
45906;DHT22;31619;49.008;12.106;2023-02-28T06:15:03;-2.50;99.90
45906;DHT22;31619;49.008;12.106;2023-02-28T06:17:28;-2.40;99.90
45906;DHT22;31619;49.008;12.106;2023-02-28T06:19:54;-2.40;99.90
45906;DHT22;31619;49.008;12.106;2023-02-28T06:22:20;-2.50;99.90
45906;DHT22;31619;49.008;12.106;2023-02-28T06:24:45;-2.50;99.90
45906;DHT22;31619;49.008;12.106;2023-02-28T06:27:11;-2.50;99.90
45906;DHT22;31619;49.008;12.106;2023-02-28T06:29:36;-2.40;99.90
45906;DHT22;31619;49.008;12.106;2023-02-28T06:32:05;-2.30;99.90
45906;DHT22;31619;49.008;12.106;2023-02-28T06:34:31;-2.20;99.90
45906;DHT22;31619;49.008;12.106;2023-02-28T06:36:59;-2.10;99.90
45906;DHT22;31619;49.008;12.106;2023-02-28T06:39:30;-2.10;99.90
45906;DHT22;31619;49.008;12.106;2023-02-28T06:41:56;-2.10;99.90
45906;DHT22;31619;49.008;12.106;2023-02-28T06:44:22;-2.10;99.90
45906;DHT22;31619;49.008;12.106;2023-02-28T06:46:48;-2.10;99.90
45906;DHT22;31619;49.008;12.106;2023-02-28T06:49:14;-2.00;99.90
45906;DHT22;31619;49.008;12.106;2023-02-28T06:51:42;-1.90;99.90
45906;DHT22;31619;49.008;12.106;2023-02-28T06:54:10;-1.80;99.90
45906;DHT22;31619;49.008;12.106;2023-02-28T06:56:36;-1.70;99.90
45906;DHT22;31619;49.008;12.106;2023-02-28T06:59:04;-1.60;99.90
45906;DHT22;31619;49.008;12.106;2023-02-28T07:01:30;-1.50;99.90
45906;DHT22;31619;49.008;12.106;2023-02-28T07:03:57;-1.40;99.90
45906;DHT22;31619;49.008;12.106;2023-02-28T07:06:23;-1.20;99.90
45906;DHT22;31619;49.008;12.106;2023-02-28T07:08:51;-1.10;99.90
45906;DHT22;31619;49.008;12.106;2023-02-28T07:11:18;-0.90;99.90
45906;DHT22;31619;49.008;12.106;2023-02-28T07:13:44;-0.80;99.90
45906;DHT22;31619;49.008;12.106;2023-02-28T07:16:12;-0.80;99.90
45906;DHT22;31619;49.008;12.106;2023-02-28T07:18:38;-0.80;99.90
45906;DHT22;31619;49.008;12.106;2023-02-28T07:21:05;-0.70;99.90
45906;DHT22;31619;49.008;12.106;2023-02-28T07:23:31;-0.70;99.90
45906;DHT22;31619;49.008;12.106;2023-02-28T07:25:57;-0.60;99.90
45906;DHT22;31619;49.008;12.106;2023-02-28T07:28:23;-0.50;99.90
45906;DHT22;31619;49.008;12.106;2023-02-28T07:30:49;-0.50;99.90
45906;DHT22;31619;49.008;12.106;2023-02-28T07:33:15;-0.40;99.90
45906;DHT22;31619;49.008;12.106;2023-02-28T07:35:41;-0.40;99.90
45906;DHT22;31619;49.008;12.106;2023-02-28T07:38:06;-0.30;99.90
45906;DHT22;31619;49.008;12.106;2023-02-28T07:40:33;-0.30;99.90
45906;DHT22;31619;49.008;12.106;2023-02-28T07:43:00;-0.20;99.90
45906;DHT22;31619;49.008;12.106;2023-02-28T07:45:27;-0.10;99.90
45906;DHT22;31619;49.008;12.106;2023-02-28T07:47:54;-0.10;99.90
45906;DHT22;31619;49.008;12.106;2023-02-28T07:50:20;0.00;99.90
45906;DHT22;31619;49.008;12.106;2023-02-28T07:52:45;0.00;99.90
45906;DHT22;31619;49.008;12.106;2023-02-28T07:55:11;0.00;99.90
45906;DHT22;31619;49.008;12.106;2023-02-28T07:57:37;0.10;99.90
45906;DHT22;31619;49.008;12.106;2023-02-28T08:00:07;0.20;99.90
45906;DHT22;31619;49.008;12.106;2023-02-28T08:02:35;0.20;99.90
45906;DHT22;31619;49.008;12.106;2023-02-28T08:05:01;0.30;99.90
45906;DHT22;31619;49.008;12.106;2023-02-28T08:07:26;0.30;99.90
45906;DHT22;31619;49.008;12.106;2023-02-28T08:09:52;0.40;99.90
45906;DHT22;31619;49.008;12.106;2023-02-28T08:12:17;0.50;99.90
45906;DHT22;31619;49.008;12.106;2023-02-28T08:14:43;0.50;99.90
45906;DHT22;31619;49.008;12.106;2023-02-28T08:17:09;0.60;99.90
45906;DHT22;31619;49.008;12.106;2023-02-28T08:19:35;0.60;99.90
45906;DHT22;31619;49.008;12.106;2023-02-28T08:22:01;0.70;99.90
45906;DHT22;31619;49.008;12.106;2023-02-28T08:24:26;0.80;99.90
45906;DHT22;31619;49.008;12.106;2023-02-28T08:26:52;0.80;99.90
45906;DHT22;31619;49.008;12.106;2023-02-28T08:29:17;1.00;99.90
45906;DHT22;31619;49.008;12.106;2023-02-28T08:31:43;1.00;99.90
45906;DHT22;31619;49.008;12.106;2023-02-28T08:34:14;1.10;99.90
45906;DHT22;31619;49.008;12.106;2023-02-28T08:36:41;1.10;99.90
45906;DHT22;31619;49.008;12.106;2023-02-28T08:39:07;1.30;99.90
45906;DHT22;31619;49.008;12.106;2023-02-28T08:41:34;1.30;99.90
45906;DHT22;31619;49.008;12.106;2023-02-28T08:44:00;1.40;99.90
45906;DHT22;31619;49.008;12.106;2023-02-28T08:46:25;1.60;99.90
45906;DHT22;31619;49.008;12.106;2023-02-28T08:48:53;1.90;99.90
45906;DHT22;31619;49.008;12.106;2023-02-28T08:51:19;2.10;99.90
45906;DHT22;31619;49.008;12.106;2023-02-28T08:53:52;2.10;99.90
45906;DHT22;31619;49.008;12.106;2023-02-28T08:56:18;2.10;99.90
45906;DHT22;31619;49.008;12.106;2023-02-28T08:58:44;2.20;99.90
45906;DHT22;31619;49.008;12.106;2023-02-28T09:01:13;2.20;99.90
45906;DHT22;31619;49.008;12.106;2023-02-28T09:03:40;2.20;99.90
45906;DHT22;31619;49.008;12.106;2023-02-28T09:06:07;2.20;99.90
45906;DHT22;31619;49.008;12.106;2023-02-28T09:08:33;2.30;99.90
45906;DHT22;31619;49.008;12.106;2023-02-28T09:10:59;2.40;99.90
45906;DHT22;31619;49.008;12.106;2023-02-28T09:13:25;2.50;99.90
45906;DHT22;31619;49.008;12.106;2023-02-28T09:15:51;2.50;99.90
45906;DHT22;31619;49.008;12.106;2023-02-28T09:18:17;2.70;99.90
45906;DHT22;31619;49.008;12.106;2023-02-28T09:20:44;2.70;99.90
45906;DHT22;31619;49.008;12.106;2023-02-28T09:23:11;2.70;99.90
45906;DHT22;31619;49.008;12.106;2023-02-28T09:25:38;3.00;99.90
45906;DHT22;31619;49.008;12.106;2023-02-28T09:28:04;3.20;99.90
45906;DHT22;31619;49.008;12.106;2023-02-28T09:30:30;3.50;99.70
45906;DHT22;31619;49.008;12.106;2023-02-28T09:32:55;3.80;98.50
45906;DHT22;31619;49.008;12.106;2023-02-28T09:35:22;4.10;97.90
45906;DHT22;31619;49.008;12.106;2023-02-28T09:37:49;5.10;97.00
45906;DHT22;31619;49.008;12.106;2023-02-28T09:40:15;6.80;93.50
45906;DHT22;31619;49.008;12.106;2023-02-28T09:42:45;9.20;88.70
45906;DHT22;31619;49.008;12.106;2023-02-28T09:47:50;13.80;61.10
45906;DHT22;31619;49.008;12.106;2023-02-28T09:50:40;15.50;55.20
45906;DHT22;31619;49.008;12.106;2023-02-28T09:53:30;16.70;51.30
45906;DHT22;31619;49.008;12.106;2023-02-28T09:56:18;17.90;48.60
45906;DHT22;31619;49.008;12.106;2023-02-28T09:58:58;19.00;45.90
45906;DHT22;31619;49.008;12.106;2023-02-28T10:01:57;19.30;44.40
45906;DHT22;31619;49.008;12.106;2023-02-28T10:07:43;19.30;43.30
45906;DHT22;31619;49.008;12.106;2023-02-28T10:10:27;19.60;42.60
45906;DHT22;31619;49.008;12.106;2023-02-28T10:12:57;20.20;42.10
45906;DHT22;31619;49.008;12.106;2023-02-28T10:15:26;20.70;40.80
45906;DHT22;31619;49.008;12.106;2023-02-28T10:18:04;21.40;40.10
45906;DHT22;31619;49.008;12.106;2023-02-28T10:20:38;21.50;39.00
45906;DHT22;31619;49.008;12.106;2023-02-28T10:23:26;20.90;38.50
45906;DHT22;31619;49.008;12.106;2023-02-28T10:25:58;21.00;39.60
45906;DHT22;31619;49.008;12.106;2023-02-28T10:28:29;21.80;38.50
45906;DHT22;31619;49.008;12.106;2023-02-28T10:30:56;22.40;37.20
45906;DHT22;31619;49.008;12.106;2023-02-28T10:33:33;22.80;37.60
45906;DHT22;31619;49.008;12.106;2023-02-28T10:36:03;22.80;37.50
45906;DHT22;31619;49.008;12.106;2023-02-28T10:38:37;23.00;37.00
45906;DHT22;31619;49.008;12.106;2023-02-28T10:43:30;23.30;37.20
45906;DHT22;31619;49.008;12.106;2023-02-28T10:45:59;23.40;36.90
45906;DHT22;31619;49.008;12.106;2023-02-28T10:48:33;23.40;35.90
45906;DHT22;31619;49.008;12.106;2023-02-28T10:50:59;23.80;35.70
45906;DHT22;31619;49.008;12.106;2023-02-28T10:53:31;23.90;35.40
45906;DHT22;31619;49.008;12.106;2023-02-28T10:58:27;24.80;35.20
45906;DHT22;31619;49.008;12.106;2023-02-28T11:00:53;24.50;34.50
45906;DHT22;31619;49.008;12.106;2023-02-28T11:03:31;24.20;35.10
45906;DHT22;31619;49.008;12.106;2023-02-28T11:05:58;24.40;35.00
45906;DHT22;31619;49.008;12.106;2023-02-28T11:08:24;24.50;35.10
45906;DHT22;31619;49.008;12.106;2023-02-28T11:11:04;25.00;34.30
45906;DHT22;31619;49.008;12.106;2023-02-28T11:13:36;24.90;34.70
45906;DHT22;31619;49.008;12.106;2023-02-28T11:16:07;25.20;34.40
45906;DHT22;31619;49.008;12.106;2023-02-28T11:21:09;25.50;33.60
45906;DHT22;31619;49.008;12.106;2023-02-28T11:23:37;25.30;33.60
45906;DHT22;31619;49.008;12.106;2023-02-28T11:26:05;25.60;33.80
45906;DHT22;31619;49.008;12.106;2023-02-28T11:28:42;26.40;33.20
45906;DHT22;31619;49.008;12.106;2023-02-28T11:31:15;26.10;33.00
45906;DHT22;31619;49.008;12.106;2023-02-28T11:36:16;25.50;34.30
45906;DHT22;31619;49.008;12.106;2023-02-28T11:38:43;26.00;33.80
45906;DHT22;31619;49.008;12.106;2023-02-28T11:41:54;26.30;33.20
45906;DHT22;31619;49.008;12.106;2023-02-28T11:47:06;27.00;32.70
45906;DHT22;31619;49.008;12.106;2023-02-28T11:52:45;27.40;31.80
45906;DHT22;31619;49.008;12.106;2023-02-28T11:55:53;27.60;32.10
45906;DHT22;31619;49.008;12.106;2023-02-28T12:00:50;28.30;31.30
45906;DHT22;31619;49.008;12.106;2023-02-28T12:08:53;27.40;31.70
45906;DHT22;31619;49.008;12.106;2023-02-28T12:11:27;27.20;32.00
45906;DHT22;31619;49.008;12.106;2023-02-28T12:14:14;27.40;32.20
45906;DHT22;31619;49.008;12.106;2023-02-28T12:19:32;27.40;31.20
45906;DHT22;31619;49.008;12.106;2023-02-28T12:27:27;26.80;32.10
45906;DHT22;31619;49.008;12.106;2023-02-28T12:30:15;26.90;31.50
45906;DHT22;31619;49.008;12.106;2023-02-28T12:33:13;26.90;32.50
45906;DHT22;31619;49.008;12.106;2023-02-28T12:35:56;27.90;31.40
45906;DHT22;31619;49.008;12.106;2023-02-28T12:38:44;28.20;31.60
45906;DHT22;31619;49.008;12.106;2023-02-28T12:41:49;27.70;31.40
45906;DHT22;31619;49.008;12.106;2023-02-28T12:44:20;26.80;32.00
45906;DHT22;31619;49.008;12.106;2023-02-28T12:46:51;26.40;32.50
45906;DHT22;31619;49.008;12.106;2023-02-28T12:49:23;27.30;32.30
45906;DHT22;31619;49.008;12.106;2023-02-28T12:51:52;26.70;32.20
45906;DHT22;31619;49.008;12.106;2023-02-28T12:54:38;26.80;32.30
45906;DHT22;31619;49.008;12.106;2023-02-28T12:57:38;26.90;32.10
45906;DHT22;31619;49.008;12.106;2023-02-28T13:00:12;26.80;31.40
45906;DHT22;31619;49.008;12.106;2023-02-28T13:08:15;25.00;33.10
45906;DHT22;31619;49.008;12.106;2023-02-28T13:10:47;24.00;33.60
45906;DHT22;31619;49.008;12.106;2023-02-28T13:13:19;23.00;33.90
45906;DHT22;31619;49.008;12.106;2023-02-28T13:18:43;22.80;34.60
45906;DHT22;31619;49.008;12.106;2023-02-28T13:21:26;22.10;35.40
45906;DHT22;31619;49.008;12.106;2023-02-28T13:26:22;21.70;35.20
45906;DHT22;31619;49.008;12.106;2023-02-28T13:28:59;21.70;35.80
45906;DHT22;31619;49.008;12.106;2023-02-28T13:31:25;21.60;35.90
45906;DHT22;31619;49.008;12.106;2023-02-28T13:39:02;20.20;37.30
45906;DHT22;31619;49.008;12.106;2023-02-28T13:51:50;18.90;39.00
45906;DHT22;31619;49.008;12.106;2023-02-28T13:57:33;18.10;39.10
45906;DHT22;31619;49.008;12.106;2023-02-28T14:05:20;18.00;40.30
45906;DHT22;31619;49.008;12.106;2023-02-28T14:07:59;18.00;40.50
45906;DHT22;31619;49.008;12.106;2023-02-28T14:10:30;18.50;39.60
45906;DHT22;31619;49.008;12.106;2023-02-28T14:15:43;19.70;38.80
45906;DHT22;31619;49.008;12.106;2023-02-28T14:18:28;20.80;38.10
45906;DHT22;31619;49.008;12.106;2023-02-28T14:21:23;20.80;37.30
45906;DHT22;31619;49.008;12.106;2023-02-28T14:32:21;22.50;36.40
45906;DHT22;31619;49.008;12.106;2023-02-28T14:34:54;23.00;36.20
45906;DHT22;31619;49.008;12.106;2023-02-28T14:37:28;23.60;35.80
45906;DHT22;31619;49.008;12.106;2023-02-28T14:39:55;24.10;34.80
45906;DHT22;31619;49.008;12.106;2023-02-28T14:42:43;23.20;34.90
45906;DHT22;31619;49.008;12.106;2023-02-28T14:45:18;21.10;36.10
45906;DHT22;31619;49.008;12.106;2023-02-28T14:47:44;19.80;37.70
45906;DHT22;31619;49.008;12.106;2023-02-28T14:50:48;19.40;38.50
45906;DHT22;31619;49.008;12.106;2023-02-28T14:53:17;19.30;39.00
45906;DHT22;31619;49.008;12.106;2023-02-28T14:55:46;18.50;39.80
45906;DHT22;31619;49.008;12.106;2023-02-28T14:58:22;18.70;39.50
45906;DHT22;31619;49.008;12.106;2023-02-28T15:00:51;19.00;39.50
45906;DHT22;31619;49.008;12.106;2023-02-28T15:03:22;19.20;39.00
45906;DHT22;31619;49.008;12.106;2023-02-28T15:05:53;19.20;38.90
45906;DHT22;31619;49.008;12.106;2023-02-28T15:08:18;19.30;39.00
45906;DHT22;31619;49.008;12.106;2023-02-28T15:10:59;19.40;39.10
45906;DHT22;31619;49.008;12.106;2023-02-28T15:13:51;20.10;38.60
45906;DHT22;31619;49.008;12.106;2023-02-28T15:16:21;21.10;37.80
45906;DHT22;31619;49.008;12.106;2023-02-28T15:19:08;21.90;37.10
45906;DHT22;31619;49.008;12.106;2023-02-28T15:21:40;22.60;36.70
45906;DHT22;31619;49.008;12.106;2023-02-28T15:24:37;23.20;36.10
45906;DHT22;31619;49.008;12.106;2023-02-28T15:27:18;23.10;35.50
45906;DHT22;31619;49.008;12.106;2023-02-28T15:29:49;22.90;35.60
45906;DHT22;31619;49.008;12.106;2023-02-28T15:32:36;21.90;36.60
45906;DHT22;31619;49.008;12.106;2023-02-28T15:40:28;16.90;40.10
45906;DHT22;31619;49.008;12.106;2023-02-28T15:43:04;15.20;42.30
45906;DHT22;31619;49.008;12.106;2023-02-28T15:45:40;13.50;44.80
45906;DHT22;31619;49.008;12.106;2023-02-28T15:48:16;12.10;46.90
45906;DHT22;31619;49.008;12.106;2023-02-28T15:50:42;11.20;48.60
45906;DHT22;31619;49.008;12.106;2023-02-28T15:53:17;10.70;49.60
45906;DHT22;31619;49.008;12.106;2023-02-28T15:55:45;10.10;50.40
45906;DHT22;31619;49.008;12.106;2023-02-28T15:58:18;9.70;52.40
45906;DHT22;31619;49.008;12.106;2023-02-28T16:00:44;9.20;53.40
45906;DHT22;31619;49.008;12.106;2023-02-28T16:03:25;8.80;54.60
45906;DHT22;31619;49.008;12.106;2023-02-28T16:08:58;8.00;57.00
45906;DHT22;31619;49.008;12.106;2023-02-28T16:11:23;7.70;58.20
45906;DHT22;31619;49.008;12.106;2023-02-28T16:13:50;7.40;58.30
45906;DHT22;31619;49.008;12.106;2023-02-28T16:16:23;7.20;58.70
45906;DHT22;31619;49.008;12.106;2023-02-28T16:18:50;6.90;59.60
45906;DHT22;31619;49.008;12.106;2023-02-28T16:21:16;6.50;60.80
45906;DHT22;31619;49.008;12.106;2023-02-28T16:23:41;6.20;61.70
45906;DHT22;31619;49.008;12.106;2023-02-28T16:26:08;6.00;63.20
45906;DHT22;31619;49.008;12.106;2023-02-28T16:28:35;5.80;63.80
45906;DHT22;31619;49.008;12.106;2023-02-28T16:31:04;5.70;64.80
45906;DHT22;31619;49.008;12.106;2023-02-28T16:33:31;5.50;65.40
45906;DHT22;31619;49.008;12.106;2023-02-28T16:35:56;5.20;67.00
45906;DHT22;31619;49.008;12.106;2023-02-28T16:38:22;5.00;67.90
45906;DHT22;31619;49.008;12.106;2023-02-28T16:40:50;4.90;68.60
45906;DHT22;31619;49.008;12.106;2023-02-28T16:43:19;4.90;69.10
45906;DHT22;31619;49.008;12.106;2023-02-28T16:45:47;4.80;70.00
45906;DHT22;31619;49.008;12.106;2023-02-28T16:48:15;4.70;72.50
45906;DHT22;31619;49.008;12.106;2023-02-28T16:50:42;4.60;74.00
45906;DHT22;31619;49.008;12.106;2023-02-28T16:53:09;4.60;75.30
45906;DHT22;31619;49.008;12.106;2023-02-28T16:55:36;4.60;74.10
45906;DHT22;31619;49.008;12.106;2023-02-28T16:58:02;4.50;73.80
45906;DHT22;31619;49.008;12.106;2023-02-28T17:00:30;4.40;73.70
45906;DHT22;31619;49.008;12.106;2023-02-28T17:02:57;4.30;74.60
45906;DHT22;31619;49.008;12.106;2023-02-28T17:05:23;4.30;75.40
45906;DHT22;31619;49.008;12.106;2023-02-28T17:07:49;4.20;77.30
45906;DHT22;31619;49.008;12.106;2023-02-28T17:10:23;4.10;76.90
45906;DHT22;31619;49.008;12.106;2023-02-28T17:12:49;4.10;77.30
45906;DHT22;31619;49.008;12.106;2023-02-28T17:15:16;4.00;78.00
45906;DHT22;31619;49.008;12.106;2023-02-28T17:17:43;4.00;78.20
45906;DHT22;31619;49.008;12.106;2023-02-28T17:20:13;4.10;78.40
45906;DHT22;31619;49.008;12.106;2023-02-28T17:22:39;4.10;78.20
45906;DHT22;31619;49.008;12.106;2023-02-28T17:25:05;4.20;77.90
45906;DHT22;31619;49.008;12.106;2023-02-28T17:27:31;4.20;78.10
45906;DHT22;31619;49.008;12.106;2023-02-28T17:29:57;4.10;79.20
45906;DHT22;31619;49.008;12.106;2023-02-28T17:32:22;4.00;79.40
45906;DHT22;31619;49.008;12.106;2023-02-28T17:34:49;4.10;79.10
45906;DHT22;31619;49.008;12.106;2023-02-28T17:37:15;4.10;79.10
45906;DHT22;31619;49.008;12.106;2023-02-28T17:39:40;4.00;79.30
45906;DHT22;31619;49.008;12.106;2023-02-28T17:42:06;4.00;79.70
45906;DHT22;31619;49.008;12.106;2023-02-28T17:44:33;3.90;80.40
45906;DHT22;31619;49.008;12.106;2023-02-28T17:46:59;3.80;80.50